createdAt,value
2022-09-15T00:00:28.635Z,1.33
2022-09-15T00:01:31.652Z,1.85
2022-09-15T00:02:33.964Z,1.90
2022-09-15T00:03:36.981Z,1.50
2022-09-15T00:04:39.027Z,1.95
2022-09-15T00:05:42.173Z,1.95
2022-09-15T00:06:44.106Z,1.60
2022-09-15T00:07:47.326Z,1.40
2022-09-15T00:08:49.633Z,2.08
2022-09-15T00:09:52.550Z,1.30
2022-09-15T00:10:58.467Z,1.45
2022-09-15T00:12:01.925Z,1.60
2022-09-15T00:13:04.074Z,1.65
2022-09-15T00:14:08.970Z,1.50
2022-09-15T00:15:13.322Z,1.50
2022-09-15T00:16:18.138Z,1.80
2022-09-15T00:17:20.593Z,1.80
2022-09-15T00:18:23.567Z,1.90
2022-09-15T00:19:25.520Z,1.70
2022-09-15T00:20:28.461Z,1.58
2022-09-15T00:21:33.810Z,2.05
2022-09-15T00:22:35.718Z,1.90
2022-09-15T00:23:39.498Z,1.63
2022-09-15T00:24:41.495Z,1.70
2022-09-15T00:25:45.884Z,2.50
2022-09-15T00:26:49.253Z,1.80
2022-09-15T00:27:52.165Z,1.83
2022-09-15T00:28:54.921Z,2.08
2022-09-15T00:29:57.883Z,1.88
2022-09-15T00:31:00.169Z,1.73
2022-09-15T00:32:03.604Z,2.13
2022-09-15T00:33:05.544Z,1.70
2022-09-15T00:34:08.509Z,2.08
2022-09-15T00:35:10.422Z,2.60
2022-09-15T00:36:14.351Z,2.60
2022-09-15T00:37:16.428Z,3.05
2022-09-15T00:38:20.233Z,3.13
2022-09-15T00:39:23.380Z,3.22
2022-09-15T00:40:25.601Z,3.47
2022-09-15T00:41:28.809Z,3.42
2022-09-15T00:42:32.212Z,4.30
2022-09-15T00:43:50.490Z,3.90
2022-09-15T00:44:57.109Z,3.17
2022-09-15T00:45:59.084Z,3.33
2022-09-15T00:47:18.721Z,3.80
2022-09-15T00:48:24.005Z,3.63
2022-09-15T00:49:30.149Z,3.58
2022-09-15T00:50:34.358Z,3.88
2022-09-15T00:51:47.802Z,4.03
2022-09-15T00:52:56.841Z,3.33
2022-09-15T00:54:02.662Z,3.40
2022-09-15T00:55:08.762Z,3.30
2022-09-15T00:56:13.026Z,2.90
2022-09-15T00:57:19.333Z,3.08
2022-09-15T00:58:25.639Z,3.50
2022-09-15T00:59:31.095Z,3.80
2022-09-15T01:00:34.571Z,2.40
2022-09-15T01:01:37.684Z,2.60
2022-09-15T01:02:42.387Z,3.45
2022-09-15T01:03:45.654Z,3.28
2022-09-15T01:04:48.661Z,3.40
2022-09-15T01:05:55.877Z,2.75
2022-09-15T01:07:02.309Z,3.15
2022-09-15T01:08:09.798Z,3.05
2022-09-15T01:09:17.119Z,3.40
2022-09-15T01:10:24.310Z,2.75
2022-09-15T01:11:26.482Z,2.75
2022-09-15T01:12:29.797Z,3.03
2022-09-15T01:13:33.066Z,2.78
2022-09-15T01:14:36.193Z,2.65
2022-09-15T01:15:48.377Z,2.67
2022-09-15T01:16:59.845Z,2.72
2022-09-15T01:18:14.917Z,2.53
2022-09-15T01:19:46.203Z,2.58
2022-09-15T01:21:10.818Z,2.25
2022-09-15T01:22:25.666Z,2.38
2022-09-15T01:24:01.671Z,2.90
2022-09-15T01:25:10.484Z,2.55
2022-09-15T01:26:42.225Z,3.17
2022-09-15T01:28:24.909Z,2.50
2022-09-15T01:29:52.164Z,2.80
2022-09-15T01:31:01.071Z,3.17
2022-09-15T01:32:35.461Z,2.60
2022-09-15T01:33:47.182Z,2.95
2022-09-15T01:34:56.717Z,2.80
2022-09-15T01:36:10.084Z,2.55
2022-09-15T01:37:17.659Z,2.60
2022-09-15T01:38:31.513Z,2.30
2022-09-15T01:39:38.305Z,2.50
2022-09-15T01:40:46.428Z,2.08
2022-09-15T01:41:53.549Z,2.28
2022-09-15T01:42:57.869Z,3.00
2022-09-15T01:44:05.608Z,3.50
2022-09-15T01:45:13.018Z,2.47
2022-09-15T01:46:16.854Z,2.50
2022-09-15T01:47:22.128Z,3.05
2022-09-15T01:48:25.752Z,2.25
2022-09-15T01:49:32.437Z,2.65
2022-09-15T01:50:37.627Z,2.92
2022-09-15T01:51:41.505Z,2.20
2022-09-15T01:52:48.858Z,2.55
2022-09-15T01:53:53.953Z,2.13
2022-09-15T01:54:58.831Z,2.20
2022-09-15T01:56:05.109Z,2.40
2022-09-15T01:57:07.089Z,2.60
2022-09-15T01:58:10.238Z,1.92
2022-09-15T01:59:12.365Z,2.08
2022-09-15T02:00:17.090Z,2.30
2022-09-15T02:01:28.039Z,2.33
2022-09-15T02:02:35.734Z,3.15
2022-09-15T02:03:46.028Z,2.25
2022-09-15T02:04:52.209Z,2.60
2022-09-15T02:06:02.755Z,2.30
2022-09-15T02:07:11.716Z,2.33
2022-09-15T02:08:25.079Z,2.30
2022-09-15T02:09:33.234Z,2.00
2022-09-15T02:10:41.392Z,2.30
2022-09-15T02:12:08.856Z,2.50
2022-09-15T02:13:16.918Z,2.55
2022-09-15T02:14:32.250Z,2.70
2022-09-15T02:15:42.851Z,2.15
2022-09-15T02:16:53.374Z,2.83
2022-09-15T02:17:59.086Z,2.72
2022-09-15T02:19:14.917Z,2.20
2022-09-15T02:20:23.635Z,2.00
2022-09-15T02:21:32.170Z,2.30
2022-09-15T02:22:37.986Z,2.45
2022-09-15T02:23:44.963Z,2.05
2022-09-15T02:24:52.707Z,2.30
2022-09-15T02:26:04.641Z,2.15
2022-09-15T02:27:10.321Z,3.13
2022-09-15T02:28:16.266Z,2.40
2022-09-15T02:29:21.152Z,3.00
2022-09-15T02:30:25.099Z,2.72
2022-09-15T02:31:30.835Z,2.50
2022-09-15T02:32:35.962Z,2.20
2022-09-15T02:33:44.141Z,2.63
2022-09-15T02:34:50.446Z,3.08
2022-09-15T02:35:52.910Z,2.78
2022-09-15T02:36:57.542Z,3.20
2022-09-15T02:38:01.080Z,3.00
2022-09-15T02:39:09.102Z,3.10
2022-09-15T02:40:11.938Z,3.70
2022-09-15T02:41:14.894Z,2.72
2022-09-15T02:42:24.763Z,3.40
2022-09-15T02:43:28.052Z,3.00
2022-09-15T02:44:31.008Z,2.80
2022-09-15T02:45:34.353Z,2.92
2022-09-15T02:46:39.115Z,2.88
2022-09-15T02:47:42.573Z,3.10
2022-09-15T02:48:44.505Z,3.03
2022-09-15T02:49:47.473Z,2.42
2022-09-15T02:50:49.412Z,2.85
2022-09-15T02:51:52.343Z,3.15
2022-09-15T02:52:54.753Z,2.58
2022-09-15T02:53:57.672Z,2.42
2022-09-15T02:55:00.764Z,2.60
2022-09-15T02:56:05.919Z,2.35
2022-09-15T02:57:07.882Z,2.30
2022-09-15T02:58:10.830Z,3.38
2022-09-15T02:59:12.908Z,2.78
2022-09-15T03:00:19.389Z,2.53
2022-09-15T03:01:26.797Z,2.33
2022-09-15T03:02:31.589Z,3.00
2022-09-15T03:03:34.667Z,2.20
2022-09-15T03:04:37.545Z,2.35
2022-09-15T03:05:39.504Z,4.50
2022-09-15T03:06:43.531Z,2.55
2022-09-15T03:07:45.547Z,2.60
2022-09-15T03:08:52.788Z,2.42
2022-09-15T03:09:54.797Z,2.03
2022-09-15T03:10:58.493Z,2.50
2022-09-15T03:12:00.409Z,3.13
2022-09-15T03:13:03.330Z,2.42
2022-09-15T03:14:06.630Z,3.22
2022-09-15T03:15:11.738Z,2.65
2022-09-15T03:16:16.041Z,2.90
2022-09-15T03:17:19.066Z,2.22
2022-09-15T03:18:22.381Z,1.75
2022-09-15T03:19:25.737Z,2.33
2022-09-15T03:20:28.656Z,2.67
2022-09-15T03:21:31.985Z,2.65
2022-09-15T03:22:34.009Z,2.58
2022-09-15T03:23:37.269Z,2.05
2022-09-15T03:24:39.273Z,2.78
2022-09-15T03:25:42.173Z,2.45
2022-09-15T03:26:44.113Z,2.40
2022-09-15T03:27:47.377Z,2.00
2022-09-15T03:28:50.045Z,2.40
2022-09-15T03:29:52.977Z,2.50
2022-09-15T03:30:55.474Z,1.85
2022-09-15T03:31:58.482Z,2.30
2022-09-15T03:33:00.485Z,1.90
2022-09-15T03:34:04.897Z,2.20
2022-09-15T03:35:07.728Z,2.30
2022-09-15T03:36:11.089Z,2.80
2022-09-15T03:37:13.058Z,2.35
2022-09-15T03:38:16.509Z,1.70
2022-09-15T03:39:18.429Z,2.30
2022-09-15T03:40:21.407Z,2.45
2022-09-15T03:41:23.609Z,2.65
2022-09-15T03:42:26.787Z,2.97
2022-09-15T03:43:29.086Z,2.22
2022-09-15T03:44:32.179Z,2.70
2022-09-15T03:45:34.133Z,2.63
2022-09-15T03:46:37.496Z,2.88
2022-09-15T03:47:39.409Z,2.13
2022-09-15T03:48:42.397Z,2.80
2022-09-15T03:49:45.684Z,2.65
2022-09-15T03:50:49.080Z,2.67
2022-09-15T03:51:51.442Z,2.50
2022-09-15T03:52:58.644Z,2.58
2022-09-15T03:54:00.809Z,2.70
2022-09-15T03:55:03.721Z,2.83
2022-09-15T03:56:10.642Z,3.40
2022-09-15T03:57:13.538Z,3.10
2022-09-15T03:58:16.137Z,2.80
2022-09-15T03:59:20.785Z,3.20
2022-09-15T04:00:22.941Z,2.85
2022-09-15T04:01:26.215Z,3.25
2022-09-15T04:02:28.230Z,2.88
2022-09-15T04:03:31.632Z,2.50
2022-09-15T04:04:33.610Z,3.13
2022-09-15T04:05:38.731Z,3.20
2022-09-15T04:06:41.661Z,3.10
2022-09-15T04:07:44.658Z,3.28
2022-09-15T04:08:46.837Z,2.55
2022-09-15T04:09:49.784Z,4.80
2022-09-15T04:10:51.789Z,2.97
2022-09-15T04:11:54.693Z,2.75
2022-09-15T04:12:56.982Z,4.03
2022-09-15T04:14:00.265Z,3.47
2022-09-15T04:15:03.965Z,2.90
2022-09-15T04:16:09.079Z,3.38
2022-09-15T04:17:11.577Z,2.80
2022-09-15T04:18:14.476Z,3.45
2022-09-15T04:19:16.419Z,2.78
2022-09-15T04:20:19.360Z,3.20
2022-09-15T04:21:24.910Z,3.35
2022-09-15T04:22:27.830Z,3.65
2022-09-15T04:23:30.063Z,3.20
2022-09-15T04:24:33.082Z,3.38
2022-09-15T04:25:35.342Z,3.05
2022-09-15T04:26:38.502Z,4.05
2022-09-15T04:27:40.450Z,3.67
2022-09-15T04:28:43.370Z,2.75
2022-09-15T04:29:45.337Z,3.15
2022-09-15T04:30:48.264Z,3.22
2022-09-15T04:31:50.622Z,2.92
2022-09-15T04:32:53.902Z,2.88
2022-09-15T04:33:56.647Z,3.05
2022-09-15T04:34:59.567Z,2.83
2022-09-15T04:36:02.721Z,3.40
2022-09-15T04:37:07.477Z,3.10
2022-09-15T04:38:09.663Z,2.60
2022-09-15T04:39:12.561Z,3.47
2022-09-15T04:40:14.700Z,3.38
2022-09-15T04:41:18.164Z,3.58
2022-09-15T04:42:21.695Z,3.45
2022-09-15T04:43:24.824Z,3.58
2022-09-15T04:44:26.830Z,4.00
2022-09-15T04:45:29.736Z,3.28
2022-09-15T04:46:31.956Z,3.28
2022-09-15T04:47:34.914Z,4.43
2022-09-15T04:48:37.801Z,3.05
2022-09-15T04:49:40.707Z,3.17
2022-09-15T04:50:42.854Z,3.45
2022-09-15T04:51:46.066Z,4.25
2022-09-15T04:52:49.545Z,3.40
2022-09-15T04:53:53.100Z,3.10
2022-09-15T04:54:55.108Z,3.15
2022-09-15T04:56:04.589Z,3.50
2022-09-15T04:57:06.791Z,3.92
2022-09-15T04:58:10.247Z,3.60
2022-09-15T04:59:14.820Z,3.80
2022-09-15T05:00:17.892Z,3.05
2022-09-15T05:01:22.676Z,3.45
2022-09-15T05:02:25.969Z,3.45
2022-09-15T05:03:27.906Z,2.80
2022-09-15T05:04:30.868Z,3.28
2022-09-15T05:05:34.445Z,2.58
2022-09-15T05:06:38.437Z,3.30
2022-09-15T05:07:40.920Z,3.05
2022-09-15T05:08:48.181Z,2.90
2022-09-15T05:09:50.158Z,3.50
2022-09-15T05:10:53.289Z,2.65
2022-09-15T05:11:55.313Z,2.80
2022-09-15T05:12:58.247Z,2.70
2022-09-15T05:14:00.676Z,2.55
2022-09-15T05:15:43.518Z,2.45
2022-09-15T05:16:46.437Z,2.22
2022-09-15T05:17:49.736Z,2.03
2022-09-15T05:18:54.424Z,2.40
2022-09-15T05:19:56.349Z,2.40
2022-09-15T05:21:00.165Z,2.50
2022-09-15T05:22:02.089Z,2.15
2022-09-15T05:23:05.020Z,2.00
2022-09-15T05:24:08.449Z,3.03
2022-09-15T05:25:11.916Z,2.42
2022-09-15T05:26:15.900Z,2.20
2022-09-15T05:27:19.462Z,2.10
2022-09-15T05:28:21.396Z,2.50
2022-09-15T05:29:24.360Z,1.85
2022-09-15T05:30:38.706Z,2.55
2022-09-15T05:31:42.707Z,2.80
2022-09-15T05:32:44.713Z,1.80
2022-09-15T05:33:48.843Z,1.70
2022-09-15T05:34:50.745Z,2.88
2022-09-15T05:35:55.094Z,2.42
2022-09-15T05:36:58.250Z,1.95
2022-09-15T05:38:00.153Z,2.50
2022-09-15T05:39:03.305Z,2.45
2022-09-15T05:40:08.732Z,1.95
2022-09-15T05:41:17.601Z,2.00
2022-09-15T05:42:19.509Z,2.28
2022-09-15T05:43:22.449Z,2.25
2022-09-15T05:44:24.380Z,2.25
2022-09-15T05:45:27.320Z,2.30
2022-09-15T05:46:30.527Z,2.58
2022-09-15T05:47:32.813Z,2.45
2022-09-15T05:48:36.197Z,2.47
2022-09-15T05:49:39.133Z,2.05
2022-09-15T05:50:49.603Z,2.13
2022-09-15T05:51:52.537Z,2.05
2022-09-15T05:52:54.445Z,1.52
2022-09-15T05:53:57.394Z,2.28
2022-09-15T05:54:59.492Z,1.83
2022-09-15T05:56:05.852Z,1.73
2022-09-15T05:57:07.777Z,1.92
2022-09-15T05:58:10.872Z,2.10
2022-09-15T05:59:13.147Z,2.08
2022-09-15T06:00:16.650Z,2.50
2022-09-15T06:01:20.029Z,2.33
2022-09-15T06:02:23.083Z,2.10
2022-09-15T06:03:30.066Z,2.67
2022-09-15T06:04:34.159Z,2.35
2022-09-15T06:05:36.122Z,2.22
2022-09-15T06:06:39.059Z,2.28
2022-09-15T06:07:41.144Z,1.90
2022-09-15T06:08:48.205Z,2.35
2022-09-15T06:09:50.630Z,1.48
2022-09-15T06:10:53.538Z,2.00
2022-09-15T06:11:56.818Z,2.22
2022-09-15T06:12:59.838Z,2.33
2022-09-15T06:14:03.155Z,1.63
2022-09-15T06:15:07.057Z,2.08
2022-09-15T06:16:10.879Z,1.83
2022-09-15T06:17:13.873Z,2.03
2022-09-15T06:18:16.300Z,1.85
2022-09-15T06:19:19.339Z,1.50
2022-09-15T06:20:21.372Z,2.25
2022-09-15T06:21:25.779Z,1.92
2022-09-15T06:22:28.581Z,1.50
2022-09-15T06:23:32.314Z,1.73
2022-09-15T06:24:34.475Z,2.40
2022-09-15T06:25:37.676Z,2.08
2022-09-15T06:26:40.617Z,1.50
2022-09-15T06:27:43.906Z,2.10
2022-09-15T06:28:50.433Z,2.10
2022-09-15T06:29:52.393Z,1.90
2022-09-15T06:30:55.296Z,2.17
2022-09-15T06:32:02.553Z,1.70
2022-09-15T06:33:04.621Z,1.75
2022-09-15T06:34:08.617Z,2.00
2022-09-15T06:35:10.569Z,1.75
2022-09-15T06:36:14.177Z,2.10
2022-09-15T06:37:16.307Z,1.80
2022-09-15T06:38:19.213Z,1.67
2022-09-15T06:39:22.150Z,1.60
2022-09-15T06:40:24.429Z,2.15
2022-09-15T06:41:38.281Z,1.92
2022-09-15T06:42:46.851Z,1.80
2022-09-15T06:43:49.378Z,1.58
2022-09-15T06:44:52.383Z,2.00
2022-09-15T06:46:02.356Z,1.65
2022-09-15T06:47:07.243Z,1.70
2022-09-15T06:48:23.950Z,2.15
2022-09-15T06:49:27.598Z,1.90
2022-09-15T06:50:30.968Z,1.80
2022-09-15T06:51:35.597Z,2.15
2022-09-15T06:52:37.625Z,1.85
2022-09-15T06:53:40.804Z,1.70
2022-09-15T06:54:42.741Z,1.75
2022-09-15T06:55:45.637Z,1.52
2022-09-15T06:56:47.596Z,1.83
2022-09-15T06:57:52.591Z,2.20
2022-09-15T06:58:55.960Z,1.80
2022-09-15T06:59:58.881Z,1.90
2022-09-15T07:01:02.402Z,1.70
2022-09-15T07:02:05.554Z,1.50
2022-09-15T07:03:07.621Z,1.83
2022-09-15T07:04:11.001Z,1.85
2022-09-15T07:05:13.234Z,1.60
2022-09-15T07:06:16.206Z,2.13
2022-09-15T07:07:18.398Z,2.15
2022-09-15T07:08:21.653Z,1.60
2022-09-15T07:09:23.614Z,2.15
2022-09-15T07:10:26.622Z,1.80
2022-09-15T07:11:29.005Z,1.77
2022-09-15T07:12:32.427Z,1.92
2022-09-15T07:13:36.266Z,1.60
2022-09-15T07:14:39.237Z,2.45
2022-09-15T07:15:41.155Z,2.75
2022-09-15T07:16:44.159Z,1.75
2022-09-15T07:17:46.089Z,1.90
2022-09-15T07:18:49.817Z,1.65
2022-09-15T07:19:52.010Z,2.38
2022-09-15T07:20:59.831Z,1.88
2022-09-15T07:22:02.725Z,2.15
2022-09-15T07:23:04.685Z,1.48
2022-09-15T07:24:07.949Z,1.60
2022-09-15T07:25:10.217Z,1.58
2022-09-15T07:26:15.352Z,1.85
2022-09-15T07:27:17.273Z,1.83
2022-09-15T07:28:20.206Z,1.30
2022-09-15T07:29:24.493Z,1.77
2022-09-15T07:30:26.437Z,2.10
2022-09-15T07:31:32.044Z,1.80
2022-09-15T07:32:34.201Z,1.90
2022-09-15T07:33:37.932Z,1.98
2022-09-15T07:34:39.901Z,1.88
2022-09-15T07:35:43.462Z,1.60
2022-09-15T07:36:46.385Z,1.85
2022-09-15T07:37:48.563Z,1.75
2022-09-15T07:38:51.938Z,1.90
2022-09-15T07:39:53.901Z,2.20
2022-09-15T07:41:03.066Z,2.03
2022-09-15T07:42:06.197Z,1.90
2022-09-15T07:43:08.233Z,2.22
2022-09-15T07:44:13.267Z,1.60
2022-09-15T07:45:16.671Z,1.50
2022-09-15T07:46:20.426Z,1.83
2022-09-15T07:47:23.403Z,1.50
2022-09-15T07:48:26.602Z,1.42
2022-09-15T07:49:29.898Z,1.92
2022-09-15T07:50:31.896Z,1.70
2022-09-15T07:51:34.843Z,2.10
2022-09-15T07:52:36.831Z,1.73
2022-09-15T07:53:39.851Z,2.10
2022-09-15T07:54:41.921Z,1.85
2022-09-15T07:55:44.840Z,1.80
2022-09-15T07:56:46.982Z,1.13
2022-09-15T07:57:58.385Z,1.55
2022-09-15T07:59:00.358Z,2.05
2022-09-15T08:00:04.441Z,1.75
2022-09-15T08:01:11.215Z,1.65
2022-09-15T08:02:18.351Z,1.95
2022-09-15T08:03:20.318Z,1.70
2022-09-15T08:04:23.285Z,1.60
2022-09-15T08:05:28.159Z,1.65
2022-09-15T08:06:31.465Z,1.60
2022-09-15T08:07:33.400Z,1.60
2022-09-15T08:08:37.928Z,2.00
2022-09-15T08:09:41.505Z,1.85
2022-09-15T08:10:43.477Z,1.90
2022-09-15T08:11:46.365Z,1.70
2022-09-15T08:12:48.337Z,1.63
2022-09-15T08:13:52.387Z,1.95
2022-09-15T08:14:55.354Z,1.70
2022-09-15T08:15:57.397Z,1.73
2022-09-15T08:17:08.167Z,1.50
2022-09-15T08:18:12.891Z,1.80
2022-09-15T08:19:15.858Z,1.65
2022-09-15T08:20:18.298Z,1.90
2022-09-15T08:21:22.175Z,1.52
2022-09-15T08:22:24.173Z,1.63
2022-09-15T08:23:27.105Z,1.35
2022-09-15T08:24:29.218Z,1.67
2022-09-15T08:25:32.278Z,1.75
2022-09-15T08:26:38.321Z,2.60
2022-09-15T08:27:40.411Z,2.05
2022-09-15T08:28:43.929Z,1.52
2022-09-15T08:29:46.024Z,1.95
2022-09-15T08:30:48.980Z,1.90
2022-09-15T08:31:51.946Z,1.42
2022-09-15T08:32:56.374Z,1.80
2022-09-15T08:34:03.836Z,1.80
2022-09-15T08:35:07.607Z,1.50
2022-09-15T08:36:11.486Z,1.90
2022-09-15T08:37:14.442Z,1.90
2022-09-15T08:38:16.365Z,1.50
2022-09-15T08:39:19.406Z,1.75
2022-09-15T08:40:25.338Z,1.50
2022-09-15T08:41:33.362Z,2.08
2022-09-15T08:42:35.339Z,1.20
2022-09-15T08:43:45.754Z,2.00
2022-09-15T08:44:55.438Z,1.80
2022-09-15T08:46:03.879Z,1.65
2022-09-15T08:47:13.633Z,1.55
2022-09-15T08:48:20.891Z,1.90
2022-09-15T08:49:49.910Z,1.73
2022-09-15T08:50:55.015Z,1.42
2022-09-15T08:52:01.563Z,1.58
2022-09-15T08:53:09.656Z,1.73
2022-09-15T08:54:18.910Z,1.95
2022-09-15T08:55:30.001Z,1.65
2022-09-15T08:56:32.063Z,1.55
2022-09-15T08:57:34.999Z,2.10
2022-09-15T08:58:37.876Z,1.60
2022-09-15T08:59:40.940Z,1.92
2022-09-15T09:00:44.281Z,1.60
2022-09-15T09:04:08.638Z,1.50
2022-09-15T09:05:21.752Z,1.30
2022-09-15T09:06:29.797Z,1.98
2022-09-15T09:07:52.451Z,1.42
2022-09-15T09:09:06.250Z,1.42
2022-09-15T09:10:14.030Z,1.30
2022-09-15T09:11:24.506Z,1.70
2022-09-15T09:12:49.141Z,1.70
2022-09-15T09:14:01.190Z,2.03
2022-09-15T09:15:17.360Z,1.60
2022-09-15T09:16:41.318Z,1.55
2022-09-15T09:18:06.905Z,1.98
2022-09-15T09:19:31.365Z,1.30
2022-09-15T09:20:44.861Z,2.03
2022-09-15T09:21:52.809Z,2.00
2022-09-15T09:22:55.402Z,1.63
2022-09-15T09:24:06.326Z,1.63
2022-09-15T09:25:26.551Z,2.13
2022-09-15T09:26:33.234Z,1.92
2022-09-15T09:27:35.526Z,1.58
2022-09-15T09:28:42.166Z,1.90
2022-09-15T09:29:49.560Z,1.77
2022-09-15T09:30:51.976Z,1.88
2022-09-15T09:31:57.054Z,1.80
2022-09-15T09:33:13.569Z,1.73
2022-09-15T09:34:29.914Z,1.40
2022-09-15T09:35:42.830Z,1.90
2022-09-15T09:36:45.877Z,1.73
2022-09-15T09:37:49.338Z,1.75
2022-09-15T09:38:52.492Z,1.85
2022-09-15T09:39:55.513Z,1.60
2022-09-15T09:41:02.081Z,1.42
2022-09-15T09:42:06.943Z,1.33
2022-09-15T09:43:09.812Z,1.52
2022-09-15T09:44:15.749Z,1.83
2022-09-15T09:45:19.518Z,1.58
2022-09-15T09:46:22.897Z,1.50
2022-09-15T09:47:28.008Z,2.17
2022-09-15T09:48:31.400Z,2.10
2022-09-15T09:49:39.790Z,1.90
2022-09-15T09:50:43.559Z,1.75
2022-09-15T09:51:52.213Z,1.70
2022-09-15T09:52:54.138Z,1.85
2022-09-15T09:53:57.073Z,1.55
2022-09-15T09:55:01.345Z,1.50
2022-09-15T09:56:18.775Z,1.70
2022-09-15T09:57:22.960Z,1.63
2022-09-15T09:58:26.745Z,1.65
2022-09-15T09:59:40.092Z,1.50
2022-09-15T10:00:43.180Z,1.63
2022-09-15T10:02:06.682Z,1.80
2022-09-15T10:03:16.996Z,1.30
2022-09-15T10:04:19.742Z,1.35
2022-09-15T10:05:24.505Z,1.95
2022-09-15T10:06:30.804Z,2.30
2022-09-15T10:07:35.181Z,1.77
2022-09-15T10:08:39.026Z,1.70
2022-09-15T10:09:50.433Z,2.10
2022-09-15T10:10:54.083Z,1.80
2022-09-15T10:11:59.590Z,1.92
2022-09-15T10:13:04.636Z,1.88
2022-09-15T10:14:06.935Z,1.40
2022-09-15T10:15:24.146Z,1.35
2022-09-15T10:16:27.622Z,1.60
2022-09-15T10:17:42.323Z,1.20
2022-09-15T10:18:44.621Z,1.25
2022-09-15T10:19:50.534Z,1.48
2022-09-15T10:20:54.288Z,1.00
2022-09-15T10:21:58.442Z,0.88
2022-09-15T10:23:07.452Z,1.33
2022-09-15T10:24:36.404Z,1.20
2022-09-15T10:25:58.013Z,1.45
2022-09-15T10:27:18.961Z,0.85
2022-09-15T10:28:25.715Z,0.73
2022-09-15T10:29:36.535Z,0.85
2022-09-15T10:30:40.112Z,0.95
2022-09-15T10:31:44.648Z,1.13
2022-09-15T10:32:48.529Z,1.25
2022-09-15T10:33:50.708Z,0.88
2022-09-15T10:35:01.558Z,0.90
2022-09-15T10:36:13.612Z,0.80
2022-09-15T10:37:26.701Z,0.80
2022-09-15T10:38:51.820Z,1.00
2022-09-15T10:39:55.616Z,0.88
2022-09-15T10:41:09.150Z,0.60
2022-09-15T10:42:19.061Z,0.88
2022-09-15T10:43:36.109Z,0.70
2022-09-15T10:44:43.948Z,0.73
2022-09-15T10:45:49.777Z,0.60
2022-09-15T10:47:03.203Z,0.50
2022-09-15T10:48:23.190Z,0.88
2022-09-15T10:49:42.342Z,0.70
2022-09-15T10:50:54.686Z,0.70
2022-09-15T10:52:12.645Z,0.70
2022-09-15T10:53:25.462Z,0.90
2022-09-15T10:54:54.064Z,0.73
2022-09-15T10:56:03.720Z,0.80
2022-09-15T10:57:14.092Z,0.73
2022-09-15T10:58:40.995Z,0.88
2022-09-15T10:59:54.964Z,0.70
2022-09-15T11:01:09.841Z,1.00
2022-09-15T11:02:46.810Z,0.90
2022-09-15T11:04:02.921Z,1.00
2022-09-15T11:05:26.898Z,0.80
2022-09-15T11:06:36.812Z,0.80
2022-09-15T11:07:51.626Z,0.90
2022-09-15T11:09:15.662Z,0.65
2022-09-15T11:10:25.215Z,0.95
2022-09-15T11:11:40.533Z,0.60
2022-09-15T11:12:55.385Z,0.95
2022-09-15T11:14:12.235Z,1.23
2022-09-15T11:15:28.252Z,0.82
2022-09-15T11:16:44.206Z,0.98
2022-09-15T11:18:00.842Z,0.90
2022-09-15T11:19:18.465Z,0.88
2022-09-15T11:20:48.568Z,0.88
2022-09-15T11:21:55.493Z,0.80
2022-09-15T11:23:07.345Z,0.70
2022-09-15T11:24:29.627Z,0.65
2022-09-15T11:25:35.588Z,0.77
2022-09-15T11:26:43.522Z,0.95
2022-09-15T11:27:49.482Z,0.80
2022-09-15T11:28:55.982Z,0.73
2022-09-15T11:30:03.675Z,1.00
2022-09-15T11:31:14.261Z,0.70
2022-09-15T11:32:21.023Z,0.85
2022-09-15T11:33:30.690Z,0.70
2022-09-15T11:34:39.042Z,0.80
2022-09-15T11:35:46.601Z,0.70
2022-09-15T11:36:53.697Z,0.70
2022-09-15T11:38:00.502Z,0.60
2022-09-15T11:39:11.625Z,0.80
2022-09-15T11:40:18.791Z,0.80
2022-09-15T11:41:27.415Z,1.02
2022-09-15T11:42:36.213Z,0.60
2022-09-15T11:43:46.362Z,0.77
2022-09-15T11:44:49.637Z,0.88
2022-09-15T11:45:55.606Z,0.70
2022-09-15T11:47:18.194Z,1.10
2022-09-15T11:48:24.034Z,0.68
2022-09-15T11:49:31.173Z,0.60
2022-09-15T11:50:38.854Z,0.82
2022-09-15T11:51:47.386Z,0.77
2022-09-15T11:52:56.410Z,0.68
2022-09-15T11:54:05.873Z,0.70
2022-09-15T11:55:17.988Z,0.75
2022-09-15T11:56:26.030Z,0.70
2022-09-15T11:57:35.829Z,0.75
2022-09-15T11:58:55.049Z,0.80
2022-09-15T12:00:03.711Z,0.80
2022-09-15T12:01:14.152Z,0.93
2022-09-15T12:02:23.635Z,1.10
2022-09-15T12:03:31.324Z,0.90
2022-09-15T12:04:41.305Z,0.70
2022-09-15T12:05:47.794Z,0.90
2022-09-15T12:06:55.161Z,0.85
2022-09-15T12:08:01.052Z,0.85
2022-09-15T12:09:07.099Z,1.00
2022-09-15T12:10:16.166Z,1.00
2022-09-15T12:11:23.091Z,0.80
2022-09-15T12:12:29.291Z,1.20
2022-09-15T12:13:34.198Z,0.70
2022-09-15T12:14:39.027Z,0.95
2022-09-15T12:15:42.213Z,1.40
2022-09-15T12:16:44.757Z,0.80
2022-09-15T12:17:55.311Z,0.80
2022-09-15T12:19:03.982Z,1.00
2022-09-15T12:20:13.406Z,0.80
2022-09-15T12:21:21.192Z,1.02
2022-09-15T12:22:29.024Z,0.98
2022-09-15T12:23:36.381Z,1.10
2022-09-15T12:24:45.864Z,1.13
2022-09-15T12:26:04.158Z,0.90
2022-09-15T12:27:12.774Z,0.90
2022-09-15T12:28:41.626Z,1.00
2022-09-15T12:29:49.580Z,1.10
2022-09-15T12:31:13.946Z,1.15
2022-09-15T12:32:22.350Z,1.15
2022-09-15T12:33:46.353Z,1.02
2022-09-15T12:35:27.821Z,0.90
2022-09-15T12:36:42.174Z,1.00
2022-09-15T12:37:48.817Z,0.90
2022-09-15T12:38:50.808Z,1.10
2022-09-15T12:39:55.163Z,1.40
2022-09-15T12:40:59.526Z,1.17
2022-09-15T12:42:20.337Z,0.80
2022-09-15T12:43:23.957Z,0.90
2022-09-15T12:44:33.731Z,1.02
2022-09-15T12:45:37.128Z,1.00
2022-09-15T12:46:39.500Z,0.85
2022-09-15T12:47:50.686Z,0.68
2022-09-15T12:48:59.570Z,0.70
2022-09-15T12:50:09.554Z,0.90
2022-09-15T12:51:20.675Z,1.13
2022-09-15T12:52:25.418Z,1.10
2022-09-15T12:53:30.749Z,1.00
2022-09-15T12:54:35.690Z,1.15
2022-09-15T12:55:50.031Z,1.05
2022-09-15T12:56:53.422Z,1.30
2022-09-15T12:58:00.067Z,0.73
2022-09-15T12:59:06.748Z,0.70
2022-09-15T13:00:42.347Z,0.63
2022-09-15T13:01:53.298Z,0.88
2022-09-15T13:02:57.173Z,0.70
2022-09-15T13:04:23.119Z,0.75
2022-09-15T13:05:51.953Z,0.85
2022-09-15T13:07:45.917Z,0.90
2022-09-15T13:09:16.470Z,0.93
2022-09-15T13:10:36.759Z,0.68
2022-09-15T13:12:54.474Z,0.60
2022-09-15T13:14:10.775Z,0.60
2022-09-15T13:15:15.962Z,0.60
2022-09-15T13:16:28.292Z,0.70
2022-09-15T13:17:31.925Z,0.57
2022-09-15T13:18:34.546Z,0.60
2022-09-15T13:19:43.605Z,0.75
2022-09-15T13:20:53.705Z,0.60
2022-09-15T13:22:07.361Z,0.80
2022-09-15T13:23:14.158Z,0.63
2022-09-15T13:24:21.426Z,0.50
2022-09-15T13:25:27.333Z,0.60
2022-09-15T13:26:32.758Z,0.70
2022-09-15T13:27:40.543Z,0.90
2022-09-15T13:28:44.099Z,0.50
2022-09-15T13:29:51.626Z,0.70
2022-09-15T13:31:05.314Z,0.70
2022-09-15T13:32:15.523Z,0.60
2022-09-15T13:35:29.207Z,0.70
2022-09-15T13:39:00.951Z,0.70
2022-09-15T13:40:33.368Z,0.60
2022-09-15T13:42:10.233Z,0.60
2022-09-15T13:43:45.379Z,0.50
2022-09-15T13:45:03.810Z,0.70
2022-09-15T13:46:21.741Z,0.60
2022-09-15T13:47:33.782Z,0.70
2022-09-15T13:48:49.721Z,0.70
2022-09-15T13:49:55.722Z,0.70
2022-09-15T13:51:01.672Z,1.00
2022-09-15T13:52:11.827Z,0.90
2022-09-15T13:53:29.836Z,0.80
2022-09-15T13:54:31.940Z,1.02
2022-09-15T13:55:38.561Z,0.73
2022-09-15T13:56:41.860Z,0.88
2022-09-15T13:59:19.386Z,0.80
2022-09-15T14:00:24.620Z,0.73
2022-09-15T14:01:28.124Z,0.60
2022-09-15T14:02:30.615Z,0.60
2022-09-15T14:03:42.455Z,0.80
2022-09-15T14:04:51.794Z,0.68
2022-09-15T14:05:55.579Z,0.95
2022-09-15T14:07:01.910Z,0.70
2022-09-15T14:08:08.969Z,0.70
2022-09-15T14:09:16.852Z,0.77
2022-09-15T14:10:23.422Z,0.60
2022-09-15T14:11:29.784Z,0.73
2022-09-15T14:12:31.796Z,0.70
2022-09-15T14:13:40.038Z,0.73
2022-09-15T14:14:58.081Z,0.80
2022-09-15T14:16:02.058Z,0.60
2022-09-15T14:17:05.456Z,0.63
2022-09-15T14:18:19.567Z,0.80
2022-09-15T14:19:31.233Z,0.50
2022-09-15T14:20:34.414Z,0.88
2022-09-15T14:21:48.950Z,1.02
2022-09-15T14:22:51.991Z,1.45
2022-09-15T14:23:57.274Z,0.90
2022-09-15T14:25:01.506Z,0.95
2022-09-15T14:26:03.812Z,0.75
2022-09-15T14:27:10.681Z,0.85
2022-09-15T14:28:19.186Z,1.00
2022-09-15T14:29:26.042Z,1.13
2022-09-15T14:30:33.021Z,1.13
2022-09-15T14:31:38.124Z,1.20
2022-09-15T14:32:47.520Z,0.95
2022-09-15T14:33:50.889Z,0.60
2022-09-15T14:34:54.076Z,1.00
2022-09-15T14:35:57.816Z,0.93
2022-09-15T14:37:03.335Z,0.90
2022-09-15T14:38:07.052Z,0.95
2022-09-15T14:39:21.561Z,0.90
2022-09-15T14:40:28.339Z,1.05
2022-09-15T14:41:32.524Z,0.75
2022-09-15T14:42:41.134Z,0.80
2022-09-15T14:43:43.481Z,0.63
2022-09-15T14:46:15.157Z,1.23
2022-09-15T14:47:20.665Z,0.80
2022-09-15T14:48:27.989Z,0.85
2022-09-15T14:49:29.971Z,0.90
2022-09-15T14:50:33.765Z,0.90
2022-09-15T14:51:36.087Z,1.10
2022-09-15T14:52:42.135Z,1.00
2022-09-15T14:53:45.401Z,0.90
2022-09-15T14:54:48.820Z,0.93
2022-09-15T14:55:54.685Z,1.13
2022-09-15T14:57:02.578Z,1.05
2022-09-15T14:58:08.360Z,1.13
2022-09-15T14:59:17.691Z,1.05
2022-09-15T15:00:23.001Z,0.70